Aeroporto :
LOGIN :

Iscrizione | Disclaimer

   EN    FR    IT 

 










Sommario :    VFR   VFR Marginale   IFR   IFR Intensivo   IFR Molto Intensivo
Visibilità : 
Base nubi : 
>= 8 km
>= 3000ft
5 / 8 km
1000 / 3000 ft
1500m / 5 km
500 / 1000 ft
800 / 1500m
200 / 500 ft
< 800m
< 200 ft
Simboli :   Temporali  Nebbia  Neve Forte  Precipitazioni Forti  Vento > 20 kt
SIGMETs :   Varie  Temporali  Ghiacco  Turbolenza  Onda orograficha  Ceneri Vulcaniche






- Altitudine del aeroporto : 794 ft


LKCV - Čáslav Air Base

ULTIMO METAR :
  • 280600Z 16009KT 9999 OVC045 01/M01 Q1001 NOSIG RMK BLU BLU

METARs OBSOLETI :
  • 280500Z 16015KT 9999 -RA NSC 01/M02 Q1002 NOSIG RMK BLU BLU
  • 280400Z 14011KT CAVOK 01/M02 Q1003 NOSIG RMK BLU BLU

TAF TAF LKCV
Valido dal 28 a 06 ore il 29 a 06 ore UTC


280500Z 2806/2906 15014KT CAVOK
BECMG 2806/2808 BKN025
TEMPO 2806/2816 5000 RA BKN015
TEMPO 2816/2821 3000 SNRA BKN012
TEMPO 2806/2902 18015G25KT
BECMG 2810/2812 24016KT
PROB40
TEMPO 2811/2823 23018G36KT



MetMap, La meteo Aeronautica in un colpo d'occhio ! - Copyright ORBIFLY Dicembre 2007 - Disclaimer

ORBIFLY MET'MAP TEAM :

Programmazione e sviluppo : Alexandra Zaïnal
Concezione : Baudouin d'Aumeries
Aiuto per la programmazione : Marc-Olivier Méhu
Supporto tecnico e logistico : Manuel Goepfert
Aiuto per la traduzione : Arnaldo La Scala

Contatto : metmap@orbifly.com




FONTI E CREDITI :

   NOAA